Fallon Colony, Nevada
Current Conditions -  °F | °C
As of 12:56 AM on Friday 19 Dec 2014 (Local Time) from KNFL Reporting Station
Few Clouds Few Clouds  
Wind Chill: 33°   Ceiling: Unl
Heat Index: 39°   Visibility: 10mi
Dew Point: 28°   Wind: 8mph
Humidity: 65%   Direction: 150°SSE
Pressure: 30.1"   Gusts: NA
Location:  39.5809°N, 118.333°W
Report Text: KNFL 190856Z AUTO 15007KT 10SM FEW095 04/M02 A3010 RMK AO2 SLP158 T00391022 58009
Loading
Personal Weather Stations






























Interactive Weather Map New forecast layout! Learn more

10-Day Weather Forecast

Advertisements
Track Severe Weather on mobile